Time;durP1;ratioP1;P1;durP2;ratioP2;P2;SDS_P1;SDS_P2;PMS_P1;PMS_P2;Temp;Humidity;BMP_temperature;BMP_pressure;BME280_temperature;BME280_humidity;BME280_pressure;Samples;Min_cycle;Max_cycle;Signal;HPM_P1;HPM_P2
2023/10/20 00:00:40;;;;;;;9.70;8.77;;;;;;;15.11;100.00;97975.63;6020881;23;20472;-73
2023/10/20 00:03:08;;;;;;;9.15;7.40;;;;;;;15.29;100.00;98007.03;6026663;23;20467;-73
2023/10/20 00:05:38;;;;;;;9.10;8.15;;;;;;;14.88;100.00;97935.19;6022477;23;20075;-74
2023/10/20 00:08:05;;;;;;;8.70;7.90;;;;;;;15.25;100.00;97991.69;6049012;23;20057;-74
2023/10/20 00:10:35;;;;;;;8.60;7.63;;;;;;;15.39;100.00;98005.97;6053972;23;20042;-74
2023/10/20 00:13:04;;;;;;;7.70;7.00;;;;;;;14.78;100.00;97893.16;6050826;23;20032;-73
2023/10/20 00:15:33;;;;;;;7.30;6.65;;;;;;;15.52;100.00;98007.03;6050662;23;20034;-74
2023/10/20 00:18:01;;;;;;;7.65;6.95;;;;;;;15.51;100.00;98013.28;6046934;23;20026;-74
2023/10/20 00:20:28;;;;;;;7.50;6.90;;;;;;;14.67;100.00;97901.47;6058284;23;20023;-73
2023/10/20 00:22:58;;;;;;;7.32;6.63;;;;;;;14.49;100.00;97862.13;6049634;23;20141;-73
2023/10/20 00:25:24;;;;;;;6.80;6.30;;;;;;;15.32;100.00;98000.59;6060659;23;20437;-73
2023/10/20 00:27:51;;;;;;;7.78;7.05;;;;;;;15.22;100.00;97989.44;6054620;23;20026;-73
2023/10/20 00:30:17;;;;;;;7.38;6.68;;;;;;;14.80;100.00;97938.69;6058804;23;20025;-73
2023/10/20 00:32:45;;;;;;;7.97;7.38;;;;;;;15.64;100.00;98038.34;6055314;23;20028;-73
2023/10/20 00:35:14;;;;;;;8.00;7.28;;;;;;;14.55;100.00;97846.44;6054994;23;20096;-75
2023/10/20 00:37:41;;;;;;;7.13;6.60;;;;;;;15.56;100.00;98020.72;6048211;23;20557;-73
2023/10/20 00:40:09;;;;;;;6.82;6.22;;;;;;;15.16;100.00;97928.38;6027021;23;20521;-73
2023/10/20 00:42:36;;;;;;;9.45;7.20;;;;;;;15.55;100.00;98000.53;6055553;23;20456;-74
2023/10/20 00:45:04;;;;;;;7.35;6.85;;;;;;;15.70;100.00;97979.44;6006046;23;20035;-73
2023/10/20 00:47:31;;;;;;;7.22;6.20;;;;;;;15.85;100.00;97964.44;6048669;23;20033;-73
2023/10/20 00:49:59;;;;;;;7.38;6.78;;;;;;;15.67;100.00;97945.44;6051713;23;20092;-74
2023/10/20 00:52:29;;;;;;;6.85;6.32;;;;;;;15.51;100.00;97949.84;6029969;23;20034;-74
2023/10/20 00:54:56;;;;;;;7.75;7.05;;;;;;;15.50;100.00;97966.72;6053340;23;20039;-73
2023/10/20 00:57:23;;;;;;;8.40;6.72;;;;;;;15.38;100.00;97927.72;6067543;23;20050;-73
2023/10/20 00:59:50;;;;;;;7.00;6.43;;;;;;;15.73;100.00;97953.47;6070465;23;20541;-73
2023/10/20 01:02:16;;;;;;;7.18;6.57;;;;;;;14.68;100.00;97771.16;6055816;23;20096;-73
2023/10/20 01:04:43;;;;;;;8.57;7.85;;;;;;;14.78;100.00;97789.41;6024667;23;20018;-76
2023/10/20 01:07:09;;;;;;;7.28;6.68;;;;;;;15.50;100.00;97928.91;6047620;23;20026;-73
2023/10/20 01:09:36;;;;;;;10.50;7.90;;;;;;;15.33;100.00;97915.84;6059795;23;20030;-75
2023/10/20 01:12:03;;;;;;;8.73;7.78;;;;;;;15.30;100.00;97918.03;6048699;23;20551;-73
2023/10/20 01:14:32;;;;;;;8.23;7.47;;;;;;;15.83;100.00;97970.91;6065089;23;20117;-73
2023/10/20 01:16:59;;;;;;;7.32;6.80;;;;;;;15.67;100.00;97927.72;6045760;23;20849;-74
2023/10/20 01:19:26;;;;;;;7.75;6.97;;;;;;;15.85;100.00;97926.59;6062715;23;20038;-74
2023/10/20 01:21:52;;;;;;;7.78;7.03;;;;;;;15.80;100.00;97899.91;6059270;23;20060;-73
2023/10/20 01:24:19;;;;;;;9.40;7.15;;;;;;;15.60;100.00;97873.16;6054037;23;20034;-74
2023/10/20 01:26:45;;;;;;;8.75;8.05;;;;;;;15.85;100.00;97898.31;6046445;23;20116;-74
2023/10/20 01:29:12;;;;;;;7.30;6.65;;;;;;;15.44;100.00;97845.06;6057254;23;20062;-73
2023/10/20 01:31:39;;;;;;;7.40;6.70;;;;;;;15.53;100.00;97842.13;6029015;23;20024;-76
2023/10/20 01:34:05;;;;;;;7.30;6.60;;;;;;;15.54;100.00;97837.69;6020529;23;20030;-75
2023/10/20 01:36:32;;;;;;;7.15;6.53;;;;;;;15.74;100.00;97861.78;6051603;23;20093;-74
2023/10/20 01:38:59;;;;;;;7.00;6.30;;;;;;;14.86;100.00;97708.28;6032394;23;20097;-74
2023/10/20 01:41:26;;;;;;;6.68;6.28;;;;;;;15.73;100.00;97847.72;6022236;23;20086;-74
2023/10/20 01:43:53;;;;;;;7.03;6.45;;;;;;;15.29;100.00;97773.69;6047071;23;20446;-75
2023/10/20 01:46:19;;;;;;;6.97;6.32;;;;;;;15.71;100.00;97859.44;6026151;23;20110;-75
2023/10/20 01:48:46;;;;;;;8.45;7.78;;;;;;;15.38;100.00;97822.81;6042296;23;20026;-74
2023/10/20 01:51:12;;;;;;;7.20;6.50;;;;;;;15.38;100.00;97812.25;6058287;23;20015;-75
2023/10/20 01:53:39;;;;;;;6.93;6.35;;;;;;;15.68;100.00;97876.50;6041594;23;20089;-75
2023/10/20 01:56:05;;;;;;;8.05;7.43;;;;;;;15.58;100.00;97865.38;6063808;23;20046;-74
2023/10/20 01:58:32;;;;;;;6.72;6.13;;;;;;;15.27;100.00;97787.06;6046989;23;20045;-74
2023/10/20 02:00:58;;;;;;;7.10;6.50;;;;;;;15.85;100.00;97849.91;6056734;23;20348;-73
2023/10/20 02:03:25;;;;;;;6.53;6.05;;;;;;;15.16;100.00;97724.97;6022860;23;20158;-74
2023/10/20 02:05:51;;;;;;;6.80;6.30;;;;;;;15.25;100.00;97730.16;6048998;23;20021;-73
2023/10/20 02:08:18;;;;;;;5.82;5.45;;;;;;;15.54;100.00;97808.59;6029483;23;20030;-73
2023/10/20 02:10:45;;;;;;;7.65;7.15;;;;;;;15.50;100.00;97809.97;6048931;23;20026;-73
2023/10/20 02:13:11;;;;;;;7.20;6.70;;;;;;;15.64;100.00;97829.47;6054539;23;20075;-73
2023/10/20 02:15:38;;;;;;;6.45;5.97;;;;;;;15.48;100.00;97815.44;6021007;23;20061;-74
2023/10/20 02:18:06;;;;;;;6.45;6.00;;;;;;;15.06;100.00;97753.47;6044915;23;20026;-74
2023/10/20 02:20:33;;;;;;;6.18;5.72;;;;;;;14.51;100.00;97684.19;6060536;23;20037;-74
2023/10/20 02:22:59;;;;;;;6.90;6.32;;;;;;;14.92;100.00;97731.31;6055671;23;20094;-74
2023/10/20 02:25:26;;;;;;;8.30;6.45;;;;;;;15.46;100.00;97824.56;6063651;23;20030;-74
2023/10/20 02:27:52;;;;;;;7.28;6.68;;;;;;;15.43;100.00;97825.72;6053134;23;20070;-73
2023/10/20 02:30:19;;;;;;;7.55;5.90;;;;;;;15.87;100.00;97847.91;6055909;23;20022;-74
2023/10/20 02:32:45;;;;;;;7.90;7.32;;;;;;;15.85;100.00;97818.16;6050817;23;20093;-74
2023/10/20 02:35:12;;;;;;;6.05;5.65;;;;;;;14.74;100.00;97612.06;6049798;23;20060;-76
2023/10/20 02:37:39;;;;;;;6.30;5.82;;;;;;;15.05;100.00;97669.94;6051756;23;20044;-74
2023/10/20 02:40:06;;;;;;;5.75;5.35;;;;;;;15.20;100.00;97700.84;6053428;23;20088;-74
2023/10/20 02:42:35;;;;;;;6.80;6.20;;;;;;;15.33;100.00;97700.97;6040744;23;20026;-74
2023/10/20 02:45:01;;;;;;;6.70;6.10;;;;;;;15.48;100.00;97707.06;6055407;23;20006;-74
2023/10/20 02:47:27;;;;;;;5.90;5.50;;;;;;;15.44;100.00;97720.84;6051829;23;20033;-73
2023/10/20 02:49:55;;;;;;;5.75;5.40;;;;;;;15.60;100.00;97765.56;6055465;23;20018;-75
2023/10/20 02:52:23;;;;;;;5.40;5.10;;;;;;;15.44;100.00;97745.44;6049096;23;20022;-75
2023/10/20 02:54:53;;;;;;;6.78;6.28;;;;;;;15.62;100.00;97744.25;6045416;23;20018;-75
2023/10/20 02:57:22;;;;;;;5.10;4.80;;;;;;;15.70;100.00;97744.16;6038780;23;20347;-73
2023/10/20 02:59:49;;;;;;;5.03;4.78;;;;;;;15.99;100.00;97735.31;6045204;23;20054;-73
2023/10/20 03:02:17;;;;;;;5.32;4.97;;;;;;;15.71;100.00;97693.69;6048121;23;20789;-75
2023/10/20 03:04:43;;;;;;;6.85;6.45;;;;;;;15.89;100.00;97690.66;6053531;23;20034;-73
2023/10/20 03:07:10;;;;;;;5.80;5.43;;;;;;;15.81;100.00;97674.91;6043894;23;20079;-73
2023/10/20 03:09:36;;;;;;;6.00;5.50;;;;;;;15.69;100.00;97624.31;6005514;23;20035;-73
2023/10/20 03:12:03;;;;;;;5.20;5.00;;;;;;;16.02;100.00;97652.97;6017751;23;20031;-73
2023/10/20 03:14:31;;;;;;;5.55;5.05;;;;;;;15.88;100.00;97628.22;6060817;23;20041;-73
2023/10/20 03:16:58;;;;;;;5.57;5.28;;;;;;;15.90;100.00;97597.09;6046485;23;20099;-73
2023/10/20 03:19:24;;;;;;;5.82;5.43;;;;;;;16.19;100.00;97600.59;6062042;23;20016;-73
2023/10/20 03:21:52;;;;;;;6.03;5.57;;;;;;;15.94;100.00;97595.72;6049712;23;20026;-74
2023/10/20 03:24:18;;;;;;;5.55;5.15;;;;;;;16.04;100.00;97602.53;6050324;23;20026;-73
2023/10/20 03:26:45;;;;;;;6.85;6.45;;;;;;;16.03;100.00;97627.31;6046086;23;20028;-74
2023/10/20 03:29:12;;;;;;;5.13;4.82;;;;;;;15.49;100.00;97528.16;6014496;23;20023;-73
2023/10/20 03:31:38;;;;;;;5.25;4.95;;;;;;;15.65;100.00;97549.06;6023180;23;20686;-72
2023/10/20 03:34:05;;;;;;;5.30;5.00;;;;;;;16.08;100.00;97609.06;6016474;23;20035;-72
2023/10/20 03:36:31;;;;;;;5.72;5.15;;;;;;;16.06;100.00;97580.16;6046401;23;20084;-73
2023/10/20 03:38:58;;;;;;;5.50;5.15;;;;;;;15.13;100.00;97426.03;6024146;23;20622;-72
2023/10/20 03:41:25;;;;;;;5.43;5.13;;;;;;;15.94;100.00;97500.50;6040274;23;20093;-72
2023/10/20 03:43:53;;;;;;;5.38;5.07;;;;;;;16.14;100.00;97558.03;6054018;23;20402;-73
2023/10/20 03:46:20;;;;;;;5.03;4.72;;;;;;;16.38;100.00;97553.28;6049870;23;20178;-73
2023/10/20 03:48:46;;;;;;;6.88;6.47;;;;;;;15.61;100.00;97431.50;6051974;23;20460;-73
2023/10/20 03:51:13;;;;;;;6.30;5.88;;;;;;;15.45;100.00;97400.88;6055082;23;20045;-74
2023/10/20 03:53:54;;;;;;;5.47;5.18;;;;;;;15.66;100.00;97388.63;6054922;23;20947;-73
2023/10/20 03:56:22;;;;;;;5.30;5.00;;;;;;;16.24;100.00;97451.84;6047598;23;20106;-74
2023/10/20 03:58:48;;;;;;;6.32;6.03;;;;;;;15.51;100.00;97344.59;6047103;23;20082;-73
2023/10/20 04:01:15;;;;;;;5.88;5.40;;;;;;;16.20;100.00;97456.72;6057433;23;20022;-73
2023/10/20 04:03:45;;;;;;;5.57;5.18;;;;;;;16.01;100.00;97462.72;6058467;23;20034;-72
2023/10/20 04:06:12;;;;;;;6.63;6.25;;;;;;;15.59;100.00;97424.78;6044164;23;20111;-72
2023/10/20 04:08:39;;;;;;;7.32;6.85;;;;;;;16.02;100.00;97467.81;6035925;23;20030;-73
2023/10/20 04:11:06;;;;;;;5.90;5.40;;;;;;;16.03;100.00;97472.06;6044649;23;20101;-72
2023/10/20 04:13:33;;;;;;;5.22;4.93;;;;;;;16.05;100.00;97477.97;6057271;23;20034;-72
2023/10/20 04:16:14;;;;;;;6.07;5.68;;;;;;;16.07;100.00;97483.09;6056128;23;20112;-72
2023/10/20 04:18:42;;;;;;;7.55;6.80;;;;;;;15.62;100.00;97433.13;6054280;23;20105;-71
2023/10/20 04:21:11;;;;;;;6.22;5.82;;;;;;;15.59;100.00;97424.78;6028198;23;20026;-74
2023/10/20 04:23:38;;;;;;;5.07;4.88;;;;;;;15.34;100.00;97410.16;6052087;23;20508;-73
2023/10/20 04:26:15;;;;;;;5.65;5.35;;;;;;;15.56;100.00;97434.72;6060735;23;20018;-73
2023/10/20 04:28:45;;;;;;;6.40;6.05;;;;;;;15.31;100.00;97412.34;6023903;23;20042;-72
2023/10/20 04:42:45;;;;;;;6.13;5.70;;;;;;;15.81;100.00;97414.97;6053261;23;20575;-72
2023/10/20 04:58:58;;;;;;;6.97;6.57;;;;;;;16.15;100.00;97364.69;6017658;23;20029;-75
2023/10/20 05:01:39;;;;;;;5.97;5.63;;;;;;;16.04;100.00;97361.81;6048798;23;20058;-72
2023/10/20 05:04:28;;;;;;;6.30;5.90;;;;;;;15.91;100.00;97383.72;6022725;23;20041;-72
2023/10/20 05:07:28;;;;;;;6.07;5.43;;;;;;;15.07;100.00;97271.78;6050627;23;20072;-72
2023/10/20 05:09:54;;;;;;;5.50;5.20;;;;;;;15.99;100.00;97395.97;6035551;23;20038;-72
2023/10/20 05:12:20;;;;;;;6.43;5.93;;;;;;;15.45;100.00;97297.00;6043073;23;20482;-72
2023/10/20 05:14:49;;;;;;;6.57;6.18;;;;;;;15.48;100.00;97305.38;6058766;23;20864;-74
2023/10/20 05:17:18;;;;;;;5.60;5.30;;;;;;;15.83;100.00;97375.94;6049383;23;20276;-72
2023/10/20 05:19:44;;;;;;;5.82;5.53;;;;;;;15.43;100.00;97323.63;6062733;23;20050;-73
2023/10/20 05:22:10;;;;;;;5.68;5.28;;;;;;;15.78;100.00;97350.09;6059014;23;20085;-72
2023/10/20 05:24:37;;;;;;;6.38;5.97;;;;;;;15.53;100.00;97312.72;6058358;23;20029;-72
2023/10/20 05:27:03;;;;;;;5.60;5.30;;;;;;;15.95;100.00;97372.53;6044671;23;20034;-73
2023/10/20 05:29:30;;;;;;;5.53;5.13;;;;;;;15.89;100.00;97354.81;6057439;23;20052;-73
2023/10/20 05:31:58;;;;;;;6.18;5.78;;;;;;;15.85;100.00;97371.28;6051609;23;20119;-73
2023/10/20 05:34:24;;;;;;;5.57;5.28;;;;;;;15.71;100.00;97351.84;6053501;23;20090;-72
2023/10/20 05:36:51;;;;;;;5.70;5.40;;;;;;;15.90;100.00;97380.25;6049556;23;20022;-72
2023/10/20 05:39:21;;;;;;;5.50;5.20;;;;;;;15.98;100.00;97359.97;6060087;23;20026;-75
2023/10/20 05:41:48;;;;;;;5.82;5.47;;;;;;;15.66;100.00;97296.94;6048935;23;20105;-75
2023/10/20 05:44:17;;;;;;;10.30;5.78;;;;;;;16.00;100.00;97363.22;6059408;23;20113;-75
2023/10/20 05:46:44;;;;;;;6.18;5.82;;;;;;;15.52;100.00;97300.53;6045901;23;20042;-74
2023/10/20 05:49:10;;;;;;;5.05;4.80;;;;;;;15.52;100.00;97280.19;6056941;23;20561;-72
2023/10/20 05:51:37;;;;;;;5.90;5.50;;;;;;;15.87;100.00;97322.47;6052680;23;20045;-74
2023/10/20 05:54:03;;;;;;;5.82;5.35;;;;;;;14.73;100.00;97124.75;6026541;23;20034;-74
2023/10/20 05:56:30;;;;;;;5.15;4.88;;;;;;;15.88;100.00;97312.72;6060718;23;20242;-73
2023/10/20 05:58:57;;;;;;;5.38;5.03;;;;;;;15.66;100.00;97282.91;6052025;23;20025;-73
2023/10/20 06:01:23;;;;;;;5.18;4.88;;;;;;;15.69;100.00;97288.59;6053338;23;20054;-74
2023/10/20 06:03:50;;;;;;;15.50;14.70;;;;;;;15.04;100.00;97195.59;5974900;23;20182;-75
2023/10/20 06:06:17;;;;;;;5.00;4.80;;;;;;;15.82;100.00;97319.59;6001781;23;20037;-75
2023/10/20 06:08:43;;;;;;;6.15;5.85;;;;;;;15.30;100.00;97246.94;6055933;23;20037;-71
2023/10/20 06:11:10;;;;;;;6.57;4.68;;;;;;;15.34;100.00;97267.50;6024750;23;20042;-73
2023/10/20 06:13:36;;;;;;;5.18;4.88;;;;;;;15.71;100.00;97344.72;6052011;23;20092;-74
2023/10/20 06:16:10;;;;;;;5.25;4.95;;;;;;;15.64;100.00;97349.19;6033389;23;20608;-75
2023/10/20 06:18:39;;;;;;;6.32;6.03;;;;;;;15.41;100.00;97315.06;6041566;23;20034;-73
2023/10/20 06:21:10;;;;;;;5.45;5.15;;;;;;;15.07;100.00;97284.97;6047124;23;20011;-76
2023/10/20 06:23:36;;;;;;;5.40;5.10;;;;;;;15.65;100.00;97374.59;6052136;23;20030;-74
2023/10/20 06:26:03;;;;;;;5.22;4.93;;;;;;;15.63;100.00;97373.16;6025836;23;20030;-73
2023/10/20 06:28:30;;;;;;;5.28;4.97;;;;;;;15.66;100.00;97388.63;6043476;23;20642;-72
2023/10/20 06:31:00;;;;;;;5.38;5.07;;;;;;;15.60;100.00;97384.13;6031404;23;20256;-74
2023/10/20 06:33:37;;;;;;;4.95;4.70;;;;;;;15.57;100.00;97372.09;6042820;23;20034;-74
2023/10/20 06:36:18;;;;;;;7.65;4.72;;;;;;;15.46;100.00;97351.50;6049796;23;20006;-72
2023/10/20 06:38:45;;;;;;;6.00;5.70;;;;;;;15.68;100.00;97376.84;6047412;23;20061;-72
2023/10/20 06:41:15;;;;;;;5.30;5.00;;;;;;;15.45;100.00;97332.16;6025269;23;20048;-73
2023/10/20 06:43:41;;;;;;;5.07;4.85;;;;;;;15.71;100.00;97375.63;6054589;23;20092;-73
2023/10/20 06:46:08;;;;;;;5.50;5.20;;;;;;;15.72;100.00;97370.19;6028184;23;20077;-72
2023/10/20 06:48:34;;;;;;;6.30;5.93;;;;;;;15.30;100.00;97331.47;6022991;23;20022;-71
2023/10/20 06:51:01;;;;;;;5.57;5.25;;;;;;;15.56;100.00;97394.25;6022070;23;20046;-71
2023/10/20 06:53:30;;;;;;;5.82;5.32;;;;;;;15.61;100.00;97401.59;6039411;23;20018;-72
2023/10/20 06:55:58;;;;;;;5.85;5.45;;;;;;;14.68;100.00;97236.19;6018286;23;20106;-73
2023/10/20 06:58:41;;;;;;;6.30;5.95;;;;;;;15.19;100.00;97321.44;6047688;23;20025;-73
2023/10/20 07:01:07;;;;;;;5.50;5.20;;;;;;;15.74;100.00;97393.81;6019794;23;20030;-72
2023/10/20 07:03:34;;;;;;;5.57;5.20;;;;;;;15.55;100.00;97372.31;6055713;23;20031;-71
2023/10/20 07:06:01;;;;;;;5.70;5.30;;;;;;;14.81;100.00;97250.47;6054512;23;20006;-72
2023/10/20 07:08:27;;;;;;;6.70;6.10;;;;;;;15.34;100.00;97335.38;6048246;23;20036;-73
2023/10/20 07:11:00;;;;;;;5.90;5.55;;;;;;;15.51;100.00;97378.16;6047769;23;20495;-72
2023/10/20 07:13:26;;;;;;;5.70;5.35;;;;;;;15.51;100.00;97357.00;6051219;23;20056;-71
2023/10/20 07:15:56;;;;;;;5.88;5.38;;;;;;;14.51;100.00;97226.84;6019516;23;20724;-72
2023/10/20 07:18:23;;;;;;;6.18;5.68;;;;;;;15.41;100.00;97367.94;6043533;23;20043;-72
2023/10/20 07:20:49;;;;;;;6.43;6.03;;;;;;;15.50;100.00;97395.03;6027296;23;20044;-73
2023/10/20 07:23:18;;;;;;;5.40;5.10;;;;;;;14.37;100.00;97199.56;6042757;23;20030;-73
2023/10/20 07:25:46;;;;;;;6.10;5.70;;;;;;;15.24;100.00;97327.78;6061633;23;20092;-72
2023/10/20 07:28:13;;;;;;;5.90;5.60;;;;;;;15.80;100.00;97386.94;6051652;23;20025;-71
2023/10/20 07:30:40;;;;;;;9.18;6.43;;;;;;;15.65;100.00;97357.91;6057199;23;20036;-71
2023/10/20 07:33:07;;;;;;;5.68;5.32;;;;;;;15.55;100.00;97342.41;6046764;23;20512;-71
2023/10/20 07:35:37;;;;;;;5.65;5.28;;;;;;;15.55;100.00;97331.81;6055449;23;20034;-72
2023/10/20 07:38:04;;;;;;;6.75;6.15;;;;;;;15.58;100.00;97338.56;6042419;23;20024;-72
2023/10/20 07:40:34;;;;;;;5.88;5.47;;;;;;;15.30;100.00;97307.72;6022628;23;20049;-71
2023/10/20 07:43:03;;;;;;;5.57;5.28;;;;;;;15.43;100.00;97357.97;6048061;23;20050;-72
2023/10/20 07:45:31;;;;;;;6.88;6.20;;;;;;;15.48;100.00;97310.66;6052069;23;20040;-72
2023/10/20 07:47:57;;;;;;;6.00;5.60;;;;;;;16.08;100.00;97373.63;6018370;23;20508;-73
2023/10/20 07:50:27;;;;;;;7.32;6.10;;;;;;;15.69;100.00;97320.31;6056499;23;20050;-72
2023/10/20 07:52:55;;;;;;;6.10;5.70;;;;;;;15.68;100.00;97354.91;6048282;23;20025;-72
2023/10/20 07:55:21;;;;;;;6.35;5.85;;;;;;;15.66;100.00;97367.50;6056374;23;20036;-73
2023/10/20 07:57:48;;;;;;;9.73;6.10;;;;;;;15.46;100.00;97344.38;6060663;23;20092;-74
2023/10/20 08:00:14;;;;;;;7.00;6.50;;;;;;;15.66;100.00;97370.13;6052615;23;20644;-71
2023/10/20 08:02:41;;;;;;;7.78;6.80;;;;;;;15.84;100.00;97391.63;6047933;23;20086;-74
2023/10/20 08:05:08;;;;;;;6.32;5.80;;;;;;;15.19;100.00;97310.88;6012008;23;20061;-71
2023/10/20 08:07:35;;;;;;;5.50;5.20;;;;;;;15.13;100.00;97315.94;6046945;23;20036;-74
2023/10/20 08:10:02;;;;;;;5.53;5.20;;;;;;;15.50;100.00;97379.19;6054657;23;20551;-72
2023/10/20 08:12:29;;;;;;;6.65;5.70;;;;;;;15.86;100.00;97396.72;6045950;23;20033;-73
2023/10/20 08:14:58;;;;;;;6.20;5.80;;;;;;;15.58;100.00;97349.16;6054046;23;20473;-73
2023/10/20 08:17:25;;;;;;;6.57;6.07;;;;;;;14.86;100.00;97235.69;6035232;23;20022;-74
2023/10/20 08:19:51;;;;;;;6.13;5.75;;;;;;;15.20;100.00;97288.75;6055100;23;20658;-74
2023/10/20 08:22:17;;;;;;;5.97;5.47;;;;;;;15.77;100.00;97398.69;6054455;23;20014;-74
2023/10/20 08:24:44;;;;;;;7.15;6.75;;;;;;;15.71;100.00;97375.63;6051250;23;20034;-73
2023/10/20 08:27:10;;;;;;;6.40;5.93;;;;;;;15.35;100.00;97306.13;6050519;23;20050;-73
2023/10/20 08:29:37;;;;;;;6.32;5.90;;;;;;;15.49;100.00;97345.81;6051427;23;20034;-73
2023/10/20 08:32:04;;;;;;;5.80;5.40;;;;;;;15.82;100.00;97400.75;6046415;23;20038;-73
2023/10/20 08:34:32;;;;;;;6.40;5.90;;;;;;;14.75;100.00;97231.78;6023440;23;20010;-72
2023/10/20 08:36:59;;;;;;;7.13;6.50;;;;;;;15.81;100.00;97420.28;6025531;23;20033;-73
2023/10/20 08:39:27;;;;;;;7.38;6.68;;;;;;;15.92;100.00;97417.09;6063222;23;20037;-73
2023/10/20 08:41:54;;;;;;;6.78;6.28;;;;;;;15.64;100.00;97385.38;6030316;23;20102;-73
2023/10/20 08:44:20;;;;;;;8.18;7.03;;;;;;;15.93;100.00;97394.91;6027543;23;20082;-72
2023/10/20 08:46:49;;;;;;;8.48;7.78;;;;;;;15.68;100.00;97315.25;6055614;23;20033;-73
2023/10/20 08:49:18;;;;;;;6.80;6.30;;;;;;;15.72;100.00;97313.84;6051621;23;20080;-73
2023/10/20 08:51:47;;;;;;;6.80;6.20;;;;;;;15.36;100.00;97254.09;6057043;23;20031;-73
2023/10/20 08:54:15;;;;;;;6.72;6.22;;;;;;;15.92;100.00;97361.56;6049398;23;20038;-73
2023/10/20 08:56:42;;;;;;;7.43;6.93;;;;;;;15.21;100.00;97261.31;6060023;23;20086;-74
2023/10/20 08:59:08;;;;;;;7.65;7.00;;;;;;;15.46;100.00;97335.66;6053782;23;20046;-73
2023/10/20 09:01:35;;;;;;;6.22;5.82;;;;;;;15.39;100.00;97350.63;6026303;23;20025;-72
2023/10/20 09:04:04;;;;;;;7.13;6.53;;;;;;;14.92;100.00;97323.88;6045207;23;20109;-73
2023/10/20 09:06:31;;;;;;;6.70;6.00;;;;;;;15.27;100.00;97364.38;6056479;23;20326;-72
2023/10/20 09:08:59;;;;;;;6.65;6.00;;;;;;;14.60;100.00;97267.97;6042190;23;20026;-73
2023/10/20 09:11:30;;;;;;;7.00;6.50;;;;;;;15.24;100.00;97377.16;6056817;23;20922;-72
2023/10/20 09:13:59;;;;;;;6.88;6.38;;;;;;;15.26;100.00;97362.75;6055042;23;20042;-72
2023/10/20 09:16:26;;;;;;;6.50;6.10;;;;;;;14.99;100.00;97322.09;6025241;23;20019;-73
2023/10/20 09:18:54;;;;;;;7.25;6.15;;;;;;;14.96;100.00;97314.56;6047014;23;20049;-72
2023/10/20 09:21:22;;;;;;;7.15;6.65;;;;;;;15.56;100.00;97400.34;6016720;23;20011;-72
2023/10/20 09:24:00;;;;;;;6.22;5.82;;;;;;;15.45;100.00;97405.34;6048279;23;20033;-72
2023/10/20 09:26:36;;;;;;;7.03;6.43;;;;;;;15.29;100.00;97385.31;6021482;23;20033;-72
2023/10/20 09:29:07;;;;;;;7.13;6.55;;;;;;;15.53;100.00;97413.13;6041885;23;20030;-71
2023/10/20 09:31:36;;;;;;;9.38;6.45;;;;;;;15.62;100.00;97419.13;6065467;23;20076;-73
2023/10/20 09:34:06;;;;;;;8.60;6.28;;;;;;;14.86;100.00;97285.84;6056073;23;20041;-72
2023/10/20 09:36:36;;;;;;;6.90;6.28;;;;;;;15.24;100.00;97346.28;6057705;23;20107;-71
2023/10/20 09:39:08;;;;;;;7.25;6.57;;;;;;;14.97;100.00;97305.63;6059551;23;20030;-73
2023/10/20 09:41:42;;;;;;;6.72;6.13;;;;;;;15.07;100.00;97321.16;6054739;23;20098;-73
2023/10/20 09:44:13;;;;;;;7.43;6.70;;;;;;;15.05;100.00;97260.59;6052387;23;20026;-73
2023/10/20 09:46:43;;;;;;;7.82;7.07;;;;;;;15.68;100.00;97360.19;6057661;23;21532;-72
2023/10/20 09:49:20;;;;;;;7.38;6.65;;;;;;;15.41;100.00;97338.06;6024326;23;20408;-74
2023/10/20 09:51:48;;;;;;;7.30;6.60;;;;;;;13.59;100.00;97043.16;6051115;23;20031;-72
2023/10/20 09:54:21;;;;;;;7.10;6.60;;;;;;;15.73;100.00;97363.06;6054814;23;20031;-71
2023/10/20 09:56:49;;;;;;;9.00;8.13;;;;;;;15.65;100.00;97358.72;6047887;23;20038;-72
2023/10/20 09:59:20;;;;;;;7.22;6.63;;;;;;;15.59;100.00;97377.19;6013172;23;20030;-73
2023/10/20 10:01:47;;;;;;;7.45;6.82;;;;;;;14.99;100.00;97295.69;6048951;23;20070;-73
2023/10/20 10:04:14;;;;;;;7.95;7.15;;;;;;;15.61;100.00;97386.56;6058874;23;20652;-73
2023/10/20 10:06:44;;;;;;;9.15;8.32;;;;;;;15.81;100.00;97381.41;6050515;23;20041;-75
2023/10/20 10:09:15;;;;;;;7.00;6.40;;;;;;;15.61;100.00;97359.31;6056825;23;20906;-75
2023/10/20 10:11:45;;;;;;;7.03;6.47;;;;;;;15.71;100.00;97365.88;6050766;23;20021;-76
2023/10/20 10:14:19;;;;;;;8.18;7.20;;;;;;;15.15;100.00;97291.94;6055473;23;20046;-75
2023/10/20 10:16:53;;;;;;;7.95;7.15;;;;;;;15.75;100.00;97377.75;6048251;23;20038;-75
2023/10/20 10:19:23;;;;;;;8.07;7.20;;;;;;;15.60;100.00;97373.56;6027053;23;20037;-76
2023/10/20 10:21:54;;;;;;;7.20;6.55;;;;;;;15.53;100.00;97355.00;6054301;23;20785;-74
2023/10/20 10:24:22;;;;;;;7.07;6.50;;;;;;;15.63;100.00;97321.09;6053692;23;20049;-75
2023/10/20 10:26:55;;;;;;;8.10;7.45;;;;;;;16.14;100.00;97349.03;6052984;23;20423;-76
2023/10/20 10:29:53;;;;;;;8.40;7.35;;;;;;;16.20;100.00;97340.31;6057294;23;20025;-77
2023/10/20 10:32:21;;;;;;;8.05;7.25;;;;;;;16.09;100.00;97317.06;6049070;23;20670;-76
2023/10/20 10:34:51;;;;;;;9.27;8.35;;;;;;;16.30;100.00;97318.75;6055601;23;20032;-75
2023/10/20 10:37:38;;;;;;;7.75;7.05;;;;;;;16.44;100.00;97280.72;6022357;23;20513;-74
2023/10/20 10:40:10;;;;;;;7.50;6.93;;;;;;;16.22;100.00;97224.50;6055369;23;20041;-74
2023/10/20 10:42:39;;;;;;;8.45;7.57;;;;;;;16.45;100.00;97225.94;6045832;23;20046;-74
2023/10/20 10:45:34;;;;;;;6.47;5.97;;;;;;;16.18;100.00;97196.00;6032217;23;20043;-74
2023/10/20 10:48:06;;;;;;;7.78;6.88;;;;;;;16.39;100.00;97209.03;6061250;23;20030;-75
2023/10/20 10:50:35;;;;;;;7.17;6.53;;;;;;;16.50;100.00;97216.38;6062019;23;20054;-74
2023/10/20 10:53:02;;;;;;;6.18;5.60;;;;;;;16.27;100.00;97192.97;6054634;23;20026;-73
2023/10/20 10:55:30;;;;;;;6.47;6.07;;;;;;;16.38;100.00;97215.38;6036968;23;20026;-74
2023/10/20 10:57:57;;;;;;;6.32;5.93;;;;;;;16.37;100.00;97220.84;6060866;23;20053;-74
2023/10/20 11:00:25;;;;;;;8.13;6.80;;;;;;;16.38;100.00;97215.38;6026507;23;20026;-74
2023/10/20 11:02:52;;;;;;;6.88;6.38;;;;;;;15.94;100.00;97154.06;6039387;23;20033;-75
2023/10/20 11:05:20;;;;;;;6.78;6.32;;;;;;;15.95;100.00;97170.75;6053282;23;20058;-73
2023/10/20 11:07:57;;;;;;;6.10;5.70;;;;;;;16.22;100.00;97206.00;6057006;23;20030;-72
2023/10/20 11:10:26;;;;;;;6.10;5.70;;;;;;;15.94;100.00;97180.50;6027991;23;20120;-77
2023/10/20 11:12:58;;;;;;;6.63;6.13;;;;;;;16.16;100.00;97214.75;6043284;23;20086;-74
2023/10/20 11:15:28;;;;;;;6.53;6.00;;;;;;;16.06;100.00;97185.22;6061913;23;20402;-76
2023/10/20 11:17:57;;;;;;;5.90;5.50;;;;;;;15.40;100.00;97066.94;6057030;23;20026;-76
2023/10/20 11:20:24;;;;;;;7.22;6.72;;;;;;;16.24;100.00;97203.97;6036575;23;20385;-77
2023/10/20 11:22:58;;;;;;;7.25;6.75;;;;;;;16.07;100.00;97168.31;6049334;23;20666;-76
2023/10/20 11:25:24;;;;;;;6.38;5.88;;;;;;;16.01;100.00;97185.00;6059274;23;20091;-77
2023/10/20 11:31:41;;;;;;;5.85;5.43;;;;;;;15.86;100.00;97206.34;6052218;23;20564;-76
2023/10/20 11:34:08;;;;;;;6.65;6.15;;;;;;;15.75;100.00;97174.19;6028576;23;20025;-76
2023/10/20 11:36:34;;;;;;;6.97;6.40;;;;;;;15.50;100.00;97131.56;6056555;23;20466;-77
2023/10/20 11:39:01;;;;;;;6.20;5.80;;;;;;;15.68;100.00;97180.44;6053830;23;20401;-75
2023/10/20 11:41:27;;;;;;;6.68;6.18;;;;;;;15.70;100.00;97183.69;6052918;23;20026;-75
2023/10/20 11:43:54;;;;;;;6.43;5.93;;;;;;;15.75;100.00;97187.41;6003531;23;20077;-75
2023/10/20 11:46:20;;;;;;;6.20;5.80;;;;;;;15.59;100.00;97126.91;6057480;23;20058;-76
2023/10/20 11:48:47;;;;;;;7.63;7.03;;;;;;;16.13;100.00;97194.78;6030357;23;20091;-76
2023/10/20 11:51:14;;;;;;;6.30;5.82;;;;;;;16.09;100.00;97177.69;6008515;23;20018;-76
2023/10/20 11:53:40;;;;;;;6.95;6.30;;;;;;;16.07;100.00;97163.03;6056239;23;20025;-75
2023/10/20 11:56:07;;;;;;;6.72;6.20;;;;;;;16.12;100.00;97172.00;6062602;23;20029;-75
2023/10/20 11:58:33;;;;;;;7.10;6.40;;;;;;;16.16;100.00;97167.13;6051064;23;20972;-78